Time;durP1;ratioP1;P1;durP2;ratioP2;P2;SDS_P1;SDS_P2;PMS_P1;PMS_P2;Temp;Humidity;BMP_temperature;BMP_pressure;BME280_temperature;BME280_humidity;BME280_pressure;Samples;Min_cycle;Max_cycle;Signal;HPM_P1;HPM_P2
2021/09/19 00:00:23;;;;;;;0.10;0.10;;;;;;;;;;5071120;28;20210;-73
2021/09/19 00:02:49;;;;;;;0.03;0.03;;;;;;;;;;5085084;28;20202;-74
2021/09/19 00:05:16;;;;;;;0.00;0.00;;;;;;;;;;5084836;28;20277;-73
2021/09/19 00:07:43;;;;;;;0.10;0.10;;;;;;;;;;5084851;28;20490;-74
2021/09/19 00:10:10;;;;;;;0.00;0.00;;;;;;;;;;5084805;28;20286;-73
2021/09/19 00:12:38;;;;;;;0.10;0.10;;;;;;;;;;5084678;28;20207;-73
2021/09/19 00:15:06;;;;;;;0.10;0.10;;;;;;;;;;5084377;28;20219;-73
2021/09/19 00:17:32;;;;;;;0.10;0.10;;;;;;;;;;5084856;28;20425;-73
2021/09/19 00:19:58;;;;;;;0.10;0.10;;;;;;;;;;5084876;28;20556;-73
2021/09/19 00:22:24;;;;;;;0.10;0.10;;;;;;;;;;5084617;28;20207;-73
2021/09/19 00:24:51;;;;;;;0.10;0.10;;;;;;;;;;5084678;28;20204;-73
2021/09/19 00:27:17;;;;;;;0.10;0.10;;;;;;;;;;5084474;28;20226;-72
2021/09/19 00:29:45;;;;;;;0.10;0.10;;;;;;;;;;5084113;28;20211;-73
2021/09/19 00:32:11;;;;;;;0.10;0.10;;;;;;;;;;5084487;28;20211;-73
2021/09/19 00:34:37;;;;;;;0.10;0.10;;;;;;;;;;5084412;28;20230;-74
2021/09/19 00:37:04;;;;;;;0.10;0.10;;;;;;;;;;5084234;28;20252;-73
2021/09/19 00:39:30;;;;;;;0.10;0.10;;;;;;;;;;5083965;28;20210;-73
2021/09/19 00:41:56;;;;;;;0.10;0.10;;;;;;;;;;5084011;28;20278;-72
2021/09/19 00:44:25;;;;;;;0.10;0.10;;;;;;;;;;5084181;28;20252;-73
2021/09/19 00:46:52;;;;;;;0.10;0.10;;;;;;;;;;5084170;28;20206;-72
2021/09/19 00:49:19;;;;;;;0.07;0.07;;;;;;;;;;5084078;28;20222;-73
2021/09/19 00:51:45;;;;;;;0.10;0.10;;;;;;;;;;5083715;28;20297;-74
2021/09/19 00:54:11;;;;;;;0.10;0.10;;;;;;;;;;5069264;28;20285;-72
2021/09/19 00:56:39;;;;;;;0.10;0.10;;;;;;;;;;5076684;28;20210;-73
2021/09/19 00:59:06;;;;;;;0.10;0.10;;;;;;;;;;5076524;28;20431;-74
2021/09/19 01:01:32;;;;;;;0.10;0.10;;;;;;;;;;5083770;28;20266;-73
2021/09/19 01:04:01;;;;;;;0.10;0.10;;;;;;;;;;5083545;28;20210;-73
2021/09/19 01:06:27;;;;;;;0.10;0.10;;;;;;;;;;5083676;28;20431;-73
2021/09/19 01:08:54;;;;;;;0.00;0.00;;;;;;;;;;5083487;28;20233;-73
2021/09/19 01:11:21;;;;;;;0.10;0.10;;;;;;;;;;5083171;28;20210;-73
2021/09/19 01:13:48;;;;;;;0.10;0.10;;;;;;;;;;5083188;28;20254;-72
2021/09/19 01:16:15;;;;;;;0.10;0.10;;;;;;;;;;5083705;28;20218;-74
2021/09/19 01:18:43;;;;;;;0.10;0.10;;;;;;;;;;5083348;28;20213;-74
2021/09/19 01:21:11;;;;;;;0.10;0.10;;;;;;;;;;5083131;28;20207;-73
2021/09/19 01:23:39;;;;;;;0.10;0.10;;;;;;;;;;5082894;28;20219;-74
2021/09/19 01:26:05;;;;;;;0.00;0.00;;;;;;;;;;5089711;28;20392;-73
2021/09/19 01:28:32;;;;;;;0.10;0.10;;;;;;;;;;5091123;28;20393;-73
2021/09/19 01:30:59;;;;;;;0.10;0.10;;;;;;;;;;5082994;28;20207;-73
2021/09/19 01:33:25;;;;;;;0.10;0.10;;;;;;;;;;5083279;28;20359;-73
2021/09/19 01:35:51;;;;;;;0.10;0.10;;;;;;;;;;5083361;28;20213;-73
2021/09/19 01:38:22;;;;;;;0.10;0.10;;;;;;;;;;5083119;28;20212;-74
2021/09/19 01:40:49;;;;;;;0.10;0.10;;;;;;;;;;5083059;28;20218;-73
2021/09/19 01:43:16;;;;;;;0.10;0.10;;;;;;;;;;5083222;28;20206;-73
2021/09/19 01:45:42;;;;;;;0.10;0.10;;;;;;;;;;5083217;28;20499;-74
2021/09/19 01:48:08;;;;;;;0.10;0.10;;;;;;;;;;5083033;28;20199;-73
2021/09/19 01:50:34;;;;;;;0.10;0.10;;;;;;;;;;5082865;28;20198;-73
2021/09/19 01:53:02;;;;;;;0.10;0.10;;;;;;;;;;5072546;28;20207;-73
2021/09/19 01:55:28;;;;;;;0.10;0.10;;;;;;;;;;5082722;28;20226;-74
2021/09/19 01:57:56;;;;;;;0.10;0.10;;;;;;;;;;5083184;28;20490;-73
2021/09/19 02:00:22;;;;;;;0.10;0.10;;;;;;;;;;5082892;28;20229;-73
2021/09/19 02:02:48;;;;;;;0.03;0.03;;;;;;;;;;5083217;28;20226;-73
2021/09/19 02:05:15;;;;;;;0.10;0.10;;;;;;;;;;5083063;28;20449;-75
2021/09/19 02:07:41;;;;;;;0.10;0.10;;;;;;;;;;5082532;28;20200;-73
2021/09/19 02:10:09;;;;;;;0.10;0.10;;;;;;;;;;5082635;28;20199;-75
2021/09/19 02:12:35;;;;;;;0.10;0.10;;;;;;;;;;5082912;28;20275;-73
2021/09/19 02:15:03;;;;;;;0.10;0.10;;;;;;;;;;5082768;28;20294;-74
2021/09/19 02:17:30;;;;;;;0.10;0.10;;;;;;;;;;5082840;28;20237;-74
2021/09/19 02:19:56;;;;;;;0.10;0.10;;;;;;;;;;5082755;28;20196;-73
2021/09/19 02:22:22;;;;;;;0.10;0.10;;;;;;;;;;5082570;28;20213;-73
2021/09/19 02:24:48;;;;;;;0.10;0.10;;;;;;;;;;5082733;28;20200;-74
2021/09/19 02:27:14;;;;;;;0.10;0.10;;;;;;;;;;5082468;28;20240;-73
2021/09/19 02:29:41;;;;;;;0.10;0.10;;;;;;;;;;5082369;28;20207;-74
2021/09/19 02:32:08;;;;;;;0.10;0.10;;;;;;;;;;5082733;28;20210;-72
2021/09/19 02:34:34;;;;;;;0.10;0.10;;;;;;;;;;5082423;28;20233;-72
2021/09/19 02:37:01;;;;;;;0.10;0.10;;;;;;;;;;5082715;28;20241;-73
2021/09/19 02:39:27;;;;;;;0.10;0.10;;;;;;;;;;5082721;28;20210;-73
2021/09/19 02:41:54;;;;;;;0.10;0.10;;;;;;;;;;5082323;28;20222;-73
2021/09/19 02:44:20;;;;;;;0.00;0.00;;;;;;;;;;5082662;28;20241;-72
2021/09/19 02:46:46;;;;;;;0.10;0.10;;;;;;;;;;5079092;28;20208;-73
2021/09/19 02:49:14;;;;;;;0.10;0.10;;;;;;;;;;5072362;28;20210;-73
2021/09/19 02:51:40;;;;;;;0.10;0.10;;;;;;;;;;5082463;28;20269;-73
2021/09/19 02:54:06;;;;;;;0.10;0.10;;;;;;;;;;5082150;28;20223;-73
2021/09/19 02:56:33;;;;;;;0.10;0.10;;;;;;;;;;5081869;28;20207;-73
2021/09/19 02:58:59;;;;;;;0.10;0.10;;;;;;;;;;5068561;28;20237;-74
2021/09/19 03:01:25;;;;;;;0.10;0.10;;;;;;;;;;5082253;28;20220;-74
2021/09/19 03:03:51;;;;;;;0.10;0.10;;;;;;;;;;5082227;28;20200;-73
2021/09/19 03:06:21;;;;;;;0.10;0.10;;;;;;;;;;5071825;28;20231;-73
2021/09/19 03:08:47;;;;;;;0.10;0.10;;;;;;;;;;5078912;28;20216;-73
2021/09/19 03:11:14;;;;;;;0.10;0.10;;;;;;;;;;5082373;28;20202;-73
2021/09/19 03:13:40;;;;;;;0.00;0.00;;;;;;;;;;5067832;28;20250;-72
2021/09/19 03:16:06;;;;;;;0.10;0.10;;;;;;;;;;5082129;28;20203;-72
2021/09/19 03:18:32;;;;;;;0.10;0.10;;;;;;;;;;5087359;28;20332;-74
2021/09/19 03:20:59;;;;;;;0.10;0.10;;;;;;;;;;5094075;28;20211;-72
2021/09/19 03:23:26;;;;;;;0.00;0.00;;;;;;;;;;5091719;28;20504;-72
2021/09/19 03:25:53;;;;;;;0.10;0.10;;;;;;;;;;5088724;28;20204;-72
2021/09/19 03:28:19;;;;;;;0.00;0.00;;;;;;;;;;5087510;28;20213;-69
2021/09/19 03:30:45;;;;;;;0.10;0.10;;;;;;;;;;5089007;28;20374;-73
2021/09/19 03:33:11;;;;;;;0.03;0.03;;;;;;;;;;5084130;28;20275;-73
2021/09/19 03:35:37;;;;;;;0.10;0.10;;;;;;;;;;5085938;28;20586;-73
2021/09/19 03:38:04;;;;;;;0.10;0.10;;;;;;;;;;5083527;28;20243;-72
2021/09/19 03:40:32;;;;;;;0.10;0.10;;;;;;;;;;5084927;28;20325;-73
2021/09/19 03:42:58;;;;;;;0.10;0.10;;;;;;;;;;5079360;28;20459;-72
2021/09/19 03:45:28;;;;;;;0.10;0.10;;;;;;;;;;5085187;28;20202;-73
2021/09/19 03:47:55;;;;;;;0.00;0.00;;;;;;;;;;5094554;28;20265;-73
2021/09/19 03:50:21;;;;;;;0.10;0.10;;;;;;;;;;5096865;28;20214;-73
2021/09/19 03:52:49;;;;;;;0.07;0.07;;;;;;;;;;5085219;28;20207;-73
2021/09/19 03:55:16;;;;;;;0.10;0.10;;;;;;;;;;5084383;28;20225;-72
2021/09/19 03:57:43;;;;;;;0.10;0.10;;;;;;;;;;5084990;28;20520;-73
2021/09/19 04:00:10;;;;;;;0.10;0.10;;;;;;;;;;5084576;28;20213;-73
2021/09/19 04:02:36;;;;;;;0.10;0.10;;;;;;;;;;5084802;28;20242;-73
2021/09/19 04:05:03;;;;;;;0.10;0.10;;;;;;;;;;5084450;28;20240;-73
2021/09/19 04:07:29;;;;;;;0.10;0.10;;;;;;;;;;5084877;28;20203;-73
2021/09/19 04:09:55;;;;;;;0.10;0.10;;;;;;;;;;5084456;28;20244;-73
2021/09/19 04:12:21;;;;;;;0.10;0.10;;;;;;;;;;5084675;28;20402;-73
2021/09/19 04:14:49;;;;;;;0.00;0.00;;;;;;;;;;5084755;28;20448;-73
2021/09/19 04:17:15;;;;;;;0.00;0.00;;;;;;;;;;5084609;28;20529;-73
2021/09/19 04:19:41;;;;;;;0.10;0.10;;;;;;;;;;5084640;28;20206;-73
2021/09/19 04:22:07;;;;;;;0.10;0.10;;;;;;;;;;5084566;28;20297;-73
2021/09/19 04:24:34;;;;;;;0.10;0.10;;;;;;;;;;5084649;28;20206;-74
2021/09/19 04:27:00;;;;;;;0.10;0.10;;;;;;;;;;5084539;28;20381;-73
2021/09/19 04:29:26;;;;;;;0.10;0.10;;;;;;;;;;5084237;28;20215;-73
2021/09/19 04:31:54;;;;;;;0.03;0.03;;;;;;;;;;5084218;28;20310;-72
2021/09/19 04:34:20;;;;;;;0.00;0.00;;;;;;;;;;5071245;28;20564;-72
2021/09/19 04:36:46;;;;;;;0.10;0.10;;;;;;;;;;5078420;28;20313;-73
2021/09/19 04:39:12;;;;;;;0.10;0.10;;;;;;;;;;5075519;28;20244;-73
2021/09/19 04:41:39;;;;;;;0.10;0.10;;;;;;;;;;5084066;28;20397;-73
2021/09/19 04:44:05;;;;;;;0.10;0.10;;;;;;;;;;5083830;28;20559;-73
2021/09/19 04:46:31;;;;;;;0.10;0.10;;;;;;;;;;5082673;28;20211;-73
2021/09/19 04:48:59;;;;;;;0.10;0.10;;;;;;;;;;5064253;28;20203;-73
2021/09/19 04:51:25;;;;;;;0.10;0.10;;;;;;;;;;5077811;28;20214;-73
2021/09/19 04:53:51;;;;;;;0.03;0.03;;;;;;;;;;5083691;28;20214;-73
2021/09/19 04:56:17;;;;;;;0.10;0.10;;;;;;;;;;5083962;28;20245;-74
2021/09/19 04:58:44;;;;;;;0.10;0.10;;;;;;;;;;5083584;28;20201;-74
2021/09/19 05:01:10;;;;;;;0.00;0.00;;;;;;;;;;5083412;28;20210;-74
2021/09/19 05:03:36;;;;;;;0.10;0.10;;;;;;;;;;5083847;28;20205;-73
2021/09/19 05:06:04;;;;;;;0.10;0.10;;;;;;;;;;5083495;28;20571;-73
2021/09/19 05:08:30;;;;;;;0.10;0.10;;;;;;;;;;5083691;28;20238;-73
2021/09/19 05:10:57;;;;;;;0.10;0.10;;;;;;;;;;5083558;28;20202;-73
2021/09/19 05:13:23;;;;;;;0.10;0.10;;;;;;;;;;5083713;28;20201;-73
2021/09/19 05:15:49;;;;;;;0.10;0.10;;;;;;;;;;5083333;28;20230;-73
2021/09/19 05:18:15;;;;;;;0.07;0.07;;;;;;;;;;5083329;28;20206;-74
2021/09/19 05:20:42;;;;;;;0.10;0.10;;;;;;;;;;5083425;28;21052;-74
2021/09/19 05:23:09;;;;;;;0.10;0.10;;;;;;;;;;5083559;28;20255;-73
2021/09/19 05:25:35;;;;;;;0.03;0.03;;;;;;;;;;5083356;28;20490;-73
2021/09/19 05:28:02;;;;;;;0.10;0.10;;;;;;;;;;5083464;28;20202;-74
2021/09/19 05:30:28;;;;;;;0.10;0.10;;;;;;;;;;5081098;28;20274;-72
2021/09/19 05:32:54;;;;;;;0.00;0.00;;;;;;;;;;5085483;28;20207;-73
2021/09/19 05:35:20;;;;;;;0.10;0.10;;;;;;;;;;5082992;28;20532;-73
2021/09/19 05:37:47;;;;;;;0.10;0.10;;;;;;;;;;5086409;28;20326;-73
2021/09/19 05:40:15;;;;;;;0.10;0.10;;;;;;;;;;5081929;28;20534;-72
2021/09/19 05:42:41;;;;;;;0.03;0.03;;;;;;;;;;5078712;28;20206;-73
2021/09/19 05:45:08;;;;;;;0.10;0.10;;;;;;;;;;5073399;28;20379;-73
2021/09/19 05:47:34;;;;;;;0.10;0.10;;;;;;;;;;5066072;28;20208;-74
2021/09/19 05:50:00;;;;;;;0.10;0.10;;;;;;;;;;5070718;28;20203;-73
2021/09/19 05:52:27;;;;;;;0.10;0.10;;;;;;;;;;5068353;28;20332;-72
2021/09/19 05:54:53;;;;;;;0.03;0.03;;;;;;;;;;5090682;28;20476;-73
2021/09/19 05:57:21;;;;;;;0.10;0.10;;;;;;;;;;5087846;28;20203;-70
2021/09/19 05:59:47;;;;;;;0.10;0.10;;;;;;;;;;5081844;28;20206;-73
2021/09/19 06:02:14;;;;;;;0.10;0.10;;;;;;;;;;5079438;28;20486;-72
2021/09/19 06:04:40;;;;;;;0.10;0.10;;;;;;;;;;5085238;28;20235;-74
2021/09/19 06:07:06;;;;;;;0.10;0.10;;;;;;;;;;5083099;28;20548;-65
2021/09/19 06:09:32;;;;;;;0.10;0.10;;;;;;;;;;5082604;28;20202;-65
2021/09/19 06:11:59;;;;;;;0.10;0.10;;;;;;;;;;5082356;28;20250;-64
2021/09/19 06:14:26;;;;;;;0.03;0.03;;;;;;;;;;5092684;28;20504;-64
2021/09/19 06:16:53;;;;;;;0.10;0.10;;;;;;;;;;5092225;28;20248;-64
2021/09/19 06:19:19;;;;;;;0.10;0.10;;;;;;;;;;5082564;28;20206;-63
2021/09/19 06:21:45;;;;;;;0.10;0.10;;;;;;;;;;5082769;28;20239;-65
2021/09/19 06:24:11;;;;;;;0.10;0.10;;;;;;;;;;5082801;28;20482;-65
2021/09/19 06:26:38;;;;;;;0.10;0.10;;;;;;;;;;5082568;28;20199;-66
2021/09/19 06:29:04;;;;;;;0.10;0.10;;;;;;;;;;5082681;28;20248;-65
2021/09/19 06:31:31;;;;;;;0.10;0.10;;;;;;;;;;5079208;28;20416;-64
2021/09/19 06:33:58;;;;;;;0.10;0.10;;;;;;;;;;5077691;28;20208;-67
2021/09/19 06:36:24;;;;;;;0.10;0.10;;;;;;;;;;5078411;28;20525;-66
2021/09/19 06:38:51;;;;;;;0.10;0.10;;;;;;;;;;5082433;28;20224;-67
2021/09/19 06:41:17;;;;;;;0.10;0.10;;;;;;;;;;5082555;28;20206;-65
2021/09/19 06:43:43;;;;;;;0.10;0.10;;;;;;;;;;5082589;28;20435;-66
2021/09/19 06:46:09;;;;;;;0.10;0.10;;;;;;;;;;5082202;28;20200;-66
2021/09/19 06:48:37;;;;;;;0.10;0.10;;;;;;;;;;5082252;28;20220;-66
2021/09/19 06:51:03;;;;;;;0.10;0.10;;;;;;;;;;5082200;28;20234;-66
2021/09/19 06:53:29;;;;;;;0.10;0.10;;;;;;;;;;5083031;28;20256;-66
2021/09/19 06:55:55;;;;;;;0.10;0.10;;;;;;;;;;5086232;28;20328;-66
2021/09/19 06:58:21;;;;;;;0.00;0.00;;;;;;;;;;5090364;28;20206;-66
2021/09/19 07:00:48;;;;;;;0.10;0.10;;;;;;;;;;5086041;28;20213;-65
2021/09/19 07:03:14;;;;;;;0.10;0.10;;;;;;;;;;5086092;28;20204;-65
2021/09/19 07:05:41;;;;;;;0.20;0.20;;;;;;;;;;5082958;28;20264;-64
2021/09/19 07:08:08;;;;;;;0.10;0.10;;;;;;;;;;5083349;28;20214;-65
2021/09/19 07:10:34;;;;;;;0.10;0.10;;;;;;;;;;5085699;28;20509;-64
2021/09/19 07:13:00;;;;;;;0.10;0.10;;;;;;;;;;5085810;28;20242;-64
2021/09/19 07:15:26;;;;;;;0.10;0.10;;;;;;;;;;5079374;28;20237;-65
2021/09/19 07:17:53;;;;;;;0.10;0.10;;;;;;;;;;5076845;28;20207;-64
2021/09/19 07:20:19;;;;;;;0.10;0.10;;;;;;;;;;5080586;28;20202;-65
2021/09/19 07:22:46;;;;;;;0.10;0.10;;;;;;;;;;5085765;28;20498;-64
2021/09/19 07:25:13;;;;;;;0.10;0.10;;;;;;;;;;5085739;28;20426;-64
2021/09/19 07:27:40;;;;;;;0.10;0.10;;;;;;;;;;5085341;28;20225;-64
2021/09/19 07:30:10;;;;;;;0.10;0.10;;;;;;;;;;5091567;28;20209;-65
2021/09/19 07:32:36;;;;;;;0.10;0.10;;;;;;;;;;5092473;28;20271;-64
2021/09/19 07:35:03;;;;;;;0.10;0.10;;;;;;;;;;5085202;28;20296;-65
2021/09/19 07:37:29;;;;;;;0.10;0.10;;;;;;;;;;5085402;28;20203;-64
2021/09/19 07:39:57;;;;;;;0.10;0.10;;;;;;;;;;5085202;28;20437;-63
2021/09/19 07:42:23;;;;;;;0.10;0.10;;;;;;;;;;5085078;28;20276;-64
2021/09/19 07:44:50;;;;;;;0.10;0.10;;;;;;;;;;5084970;28;20204;-65
2021/09/19 07:47:16;;;;;;;0.10;0.10;;;;;;;;;;5077020;28;20323;-64
2021/09/19 07:49:43;;;;;;;0.10;0.10;;;;;;;;;;5078829;28;20241;-65
2021/09/19 07:52:11;;;;;;;0.00;0.00;;;;;;;;;;5085096;28;20203;-65
2021/09/19 07:54:38;;;;;;;0.10;0.10;;;;;;;;;;5087076;28;20218;-64
2021/09/19 07:57:05;;;;;;;0.10;0.10;;;;;;;;;;5098420;28;20221;-64
2021/09/19 07:59:31;;;;;;;0.10;0.10;;;;;;;;;;5084999;28;20209;-65
2021/09/19 08:01:58;;;;;;;0.10;0.10;;;;;;;;;;5084787;28;20204;-65
2021/09/19 08:04:24;;;;;;;0.10;0.10;;;;;;;;;;5084436;28;20227;-66
2021/09/19 08:06:50;;;;;;;0.10;0.10;;;;;;;;;;5084974;28;20432;-65
2021/09/19 08:09:16;;;;;;;0.10;0.10;;;;;;;;;;5084624;28;20274;-65
2021/09/19 08:11:42;;;;;;;0.10;0.10;;;;;;;;;;5084960;28;20249;-65
2021/09/19 08:14:10;;;;;;;0.00;0.00;;;;;;;;;;5084673;28;20256;-64
2021/09/19 08:16:37;;;;;;;0.10;0.10;;;;;;;;;;5095874;28;20396;-64
2021/09/19 08:19:04;;;;;;;0.10;0.10;;;;;;;;;;5090401;28;20280;-63
2021/09/19 08:21:30;;;;;;;0.10;0.10;;;;;;;;;;5095076;28;20272;-64
2021/09/19 08:23:56;;;;;;;0.10;0.10;;;;;;;;;;5084440;28;20205;-65
2021/09/19 08:26:23;;;;;;;0.00;0.00;;;;;;;;;;5084607;28;20498;-65
2021/09/19 08:28:49;;;;;;;0.10;0.10;;;;;;;;;;5084505;28;20214;-65
2021/09/19 08:31:17;;;;;;;0.10;0.10;;;;;;;;;;5084462;28;20354;-65
2021/09/19 08:33:43;;;;;;;0.10;0.10;;;;;;;;;;5084519;28;20439;-64
2021/09/19 08:36:09;;;;;;;0.10;0.10;;;;;;;;;;5084097;28;20259;-66
2021/09/19 08:38:35;;;;;;;0.10;0.10;;;;;;;;;;5084376;28;20554;-65
2021/09/19 08:41:02;;;;;;;0.10;0.10;;;;;;;;;;5096835;28;20203;-65
2021/09/19 08:43:28;;;;;;;0.10;0.10;;;;;;;;;;5085981;28;20206;-64
2021/09/19 08:45:54;;;;;;;0.10;0.10;;;;;;;;;;5084096;28;20244;-65
2021/09/19 08:48:22;;;;;;;0.10;0.10;;;;;;;;;;5083805;28;20247;-65
2021/09/19 08:50:49;;;;;;;0.10;0.10;;;;;;;;;;5083796;28;20445;-64
2021/09/19 08:53:16;;;;;;;0.10;0.10;;;;;;;;;;5083789;28;20203;-64
2021/09/19 08:55:42;;;;;;;0.10;0.10;;;;;;;;;;5083993;28;20261;-63
2021/09/19 08:58:09;;;;;;;0.10;0.10;;;;;;;;;;5083984;28;20207;-65
2021/09/19 09:00:38;;;;;;;0.10;0.10;;;;;;;;;;5083685;28;20537;-64
2021/09/19 09:03:09;;;;;;;0.10;0.10;;;;;;;;;;5069976;28;20203;-65
2021/09/19 09:05:37;;;;;;;0.10;0.10;;;;;;;;;;5083135;28;20221;-65
2021/09/19 09:08:04;;;;;;;0.10;0.10;;;;;;;;;;5083649;28;20210;-65
2021/09/19 09:10:31;;;;;;;0.10;0.10;;;;;;;;;;5083491;28;20491;-66
2021/09/19 09:13:01;;;;;;;0.00;0.00;;;;;;;;;;5083489;28;20246;-65
2021/09/19 09:15:38;;;;;;;0.10;0.10;;;;;;;;;;5082739;28;20235;-64
2021/09/19 09:18:05;;;;;;;0.10;0.10;;;;;;;;;;5083011;28;20239;-65
2021/09/19 09:20:47;;;;;;;0.10;0.10;;;;;;;;;;5083514;28;20226;-66
2021/09/19 09:23:20;;;;;;;0.10;0.10;;;;;;;;;;5083237;28;20232;-63
2021/09/19 09:25:46;;;;;;;0.10;0.10;;;;;;;;;;5083428;28;20194;-64
2021/09/19 09:28:13;;;;;;;0.10;0.10;;;;;;;;;;5083124;28;20202;-63
2021/09/19 09:30:39;;;;;;;0.03;0.03;;;;;;;;;;5083393;28;20208;-63
2021/09/19 09:33:05;;;;;;;0.10;0.10;;;;;;;;;;5083406;28;21737;-64
2021/09/19 09:35:34;;;;;;;0.10;0.10;;;;;;;;;;5074178;28;20204;-65
2021/09/19 09:38:16;;;;;;;0.00;0.00;;;;;;;;;;5078249;28;20207;-64
2021/09/19 09:40:42;;;;;;;0.10;0.10;;;;;;;;;;5082930;28;20205;-64
2021/09/19 09:43:09;;;;;;;0.00;0.00;;;;;;;;;;5083129;28;20391;-65
2021/09/19 09:45:36;;;;;;;0.00;0.00;;;;;;;;;;5082866;28;20257;-65
2021/09/19 09:48:03;;;;;;;0.10;0.10;;;;;;;;;;5082832;28;20359;-65
2021/09/19 09:50:30;;;;;;;0.10;0.10;;;;;;;;;;5083135;28;20223;-65
2021/09/19 09:53:09;;;;;;;0.00;0.00;;;;;;;;;;5082921;28;20511;-65
2021/09/19 09:55:35;;;;;;;0.08;0.08;;;;;;;;;;5082821;28;20255;-64
2021/09/19 09:58:08;;;;;;;0.10;0.10;;;;;;;;;;5082728;28;20460;-64
2021/09/19 10:00:35;;;;;;;0.10;0.10;;;;;;;;;;5082903;28;20191;-65
2021/09/19 10:03:01;;;;;;;0.10;0.10;;;;;;;;;;5082774;28;20207;-65
2021/09/19 10:05:28;;;;;;;0.00;0.00;;;;;;;;;;5082610;28;20223;-65
2021/09/19 10:07:55;;;;;;;0.00;0.00;;;;;;;;;;5082857;28;20212;-65
2021/09/19 10:10:23;;;;;;;0.10;0.10;;;;;;;;;;5082743;28;20203;-65
2021/09/19 10:12:51;;;;;;;0.00;0.00;;;;;;;;;;5082679;28;20211;-64
2021/09/19 10:15:18;;;;;;;0.10;0.10;;;;;;;;;;5082494;28;20204;-64
2021/09/19 10:17:44;;;;;;;0.10;0.10;;;;;;;;;;5082564;28;20260;-65
2021/09/19 10:20:12;;;;;;;0.03;0.03;;;;;;;;;;5082628;28;20205;-65
2021/09/19 10:22:42;;;;;;;0.10;0.10;;;;;;;;;;5082227;28;20201;-65
2021/09/19 10:25:09;;;;;;;0.00;0.00;;;;;;;;;;5082750;28;20208;-65
2021/09/19 10:27:37;;;;;;;0.08;0.08;;;;;;;;;;5083609;28;20353;-65
2021/09/19 10:30:06;;;;;;;0.00;0.00;;;;;;;;;;5086379;28;20205;-65
2021/09/19 10:32:33;;;;;;;0.05;0.05;;;;;;;;;;5086414;28;20228;-65
2021/09/19 10:34:59;;;;;;;0.00;0.00;;;;;;;;;;5099365;28;20222;-64
2021/09/19 10:37:47;;;;;;;0.00;0.00;;;;;;;;;;5086272;28;20226;-64
2021/09/19 10:40:13;;;;;;;0.00;0.00;;;;;;;;;;5086135;28;20199;-65
2021/09/19 10:42:49;;;;;;;0.10;0.10;;;;;;;;;;5086513;28;20207;-64
2021/09/19 10:45:16;;;;;;;0.00;0.00;;;;;;;;;;5086396;28;20195;-65
2021/09/19 10:47:50;;;;;;;0.10;0.10;;;;;;;;;;5086119;28;20297;-65
2021/09/19 10:50:24;;;;;;;0.10;0.10;;;;;;;;;;5086443;28;20243;-64
2021/09/19 10:52:52;;;;;;;0.10;0.10;;;;;;;;;;5085620;28;20199;-65
2021/09/19 10:55:19;;;;;;;0.00;0.00;;;;;;;;;;5085595;28;20397;-65
2021/09/19 10:57:54;;;;;;;0.00;0.00;;;;;;;;;;5085976;28;20294;-65
2021/09/19 11:00:21;;;;;;;0.00;0.00;;;;;;;;;;5086121;28;20197;-64
2021/09/19 11:03:00;;;;;;;0.10;0.10;;;;;;;;;;5085732;28;20268;-65
2021/09/19 11:05:27;;;;;;;0.10;0.10;;;;;;;;;;5080466;28;20223;-66
2021/09/19 11:08:09;;;;;;;0.00;0.00;;;;;;;;;;5085605;28;20258;-65
2021/09/19 11:10:36;;;;;;;0.10;0.10;;;;;;;;;;5082442;28;20246;-66
2021/09/19 11:13:18;;;;;;;0.10;0.10;;;;;;;;;;5085595;28;20241;-63
2021/09/19 11:15:44;;;;;;;0.10;0.10;;;;;;;;;;5085911;28;20207;-65
2021/09/19 11:18:22;;;;;;;0.03;0.03;;;;;;;;;;5087294;28;20220;-64
2021/09/19 11:21:00;;;;;;;0.10;0.10;;;;;;;;;;5085339;28;20200;-64
2021/09/19 11:23:29;;;;;;;0.10;0.10;;;;;;;;;;5084124;28;20199;-64
2021/09/19 11:25:55;;;;;;;0.10;0.10;;;;;;;;;;5085436;28;20227;-64
2021/09/19 11:28:24;;;;;;;0.10;0.10;;;;;;;;;;5087304;28;20207;-65
2021/09/19 11:30:56;;;;;;;0.10;0.10;;;;;;;;;;5085185;28;20267;-65
2021/09/19 11:33:23;;;;;;;0.05;0.05;;;;;;;;;;5076096;28;20200;-63
2021/09/19 11:35:49;;;;;;;0.10;0.10;;;;;;;;;;5085003;28;20221;-64
2021/09/19 11:38:18;;;;;;;0.03;0.03;;;;;;;;;;5074786;28;20227;-65
2021/09/19 11:40:44;;;;;;;0.10;0.10;;;;;;;;;;5079233;28;20211;-65
2021/09/19 11:43:11;;;;;;;0.05;0.05;;;;;;;;;;5084557;28;20512;-66
2021/09/19 11:45:39;;;;;;;0.10;0.10;;;;;;;;;;5075679;28;20202;-65
2021/09/19 11:48:06;;;;;;;0.03;0.03;;;;;;;;;;5079404;28;20273;-65
2021/09/19 11:50:36;;;;;;;0.10;0.10;;;;;;;;;;5076184;28;20203;-64
2021/09/19 11:53:04;;;;;;;0.00;0.00;;;;;;;;;;5080141;28;20457;-64
2021/09/19 11:55:30;;;;;;;0.00;0.00;;;;;;;;;;5081436;28;20252;-65
2021/09/19 11:57:57;;;;;;;0.10;0.10;;;;;;;;;;5084768;28;20530;-65
2021/09/19 12:00:23;;;;;;;0.10;0.10;;;;;;;;;;5084971;28;20196;-64
2021/09/19 12:02:52;;;;;;;0.00;0.00;;;;;;;;;;5091842;28;20201;-64
2021/09/19 12:05:19;;;;;;;0.10;0.10;;;;;;;;;;5080878;28;20226;-64
2021/09/19 12:07:45;;;;;;;0.10;0.10;;;;;;;;;;5075669;28;20198;-65
2021/09/19 12:10:12;;;;;;;0.10;0.10;;;;;;;;;;5084520;28;20477;-65
2021/09/19 12:12:38;;;;;;;0.10;0.10;;;;;;;;;;5084542;28;20206;-65
2021/09/19 12:15:04;;;;;;;0.03;0.03;;;;;;;;;;5084908;28;20200;-64
2021/09/19 12:17:31;;;;;;;0.10;0.10;;;;;;;;;;5084383;28;20562;-65
2021/09/19 12:19:59;;;;;;;0.10;0.10;;;;;;;;;;5087415;28;20199;-64
2021/09/19 12:22:25;;;;;;;0.10;0.10;;;;;;;;;;5084396;28;20214;-65
2021/09/19 12:24:52;;;;;;;0.10;0.10;;;;;;;;;;5087406;28;20201;-65
2021/09/19 12:27:19;;;;;;;0.10;0.10;;;;;;;;;;5089311;28;20264;-65
2021/09/19 12:30:04;;;;;;;0.10;0.10;;;;;;;;;;5092466;28;20201;-68
2021/09/19 12:32:34;;;;;;;0.00;0.00;;;;;;;;;;5084021;28;20203;-72
2021/09/19 12:35:03;;;;;;;0.10;0.10;;;;;;;;;;5082458;28;20208;-73
2021/09/19 12:37:33;;;;;;;0.03;0.03;;;;;;;;;;5083851;28;20224;-72
2021/09/19 12:40:03;;;;;;;0.00;0.00;;;;;;;;;;5080798;28;20589;-74
2021/09/19 12:42:29;;;;;;;0.00;0.00;;;;;;;;;;5084147;28;20210;-70
2021/09/19 12:44:57;;;;;;;0.00;0.00;;;;;;;;;;5083795;28;20214;-73
2021/09/19 12:47:23;;;;;;;0.03;0.03;;;;;;;;;;5083619;28;20239;-71
2021/09/19 12:49:50;;;;;;;0.10;0.10;;;;;;;;;;5083045;28;20250;-70
2021/09/19 12:52:18;;;;;;;0.10;0.10;;;;;;;;;;5073523;28;20256;-75
2021/09/19 12:54:48;;;;;;;0.10;0.10;;;;;;;;;;5083541;28;20213;-73
2021/09/19 12:57:14;;;;;;;0.10;0.10;;;;;;;;;;5076638;28;20224;-71
2021/09/19 12:59:40;;;;;;;0.10;0.10;;;;;;;;;;5079576;28;20201;-73
2021/09/19 13:02:07;;;;;;;0.10;0.10;;;;;;;;;;5073229;28;20201;-74
2021/09/19 13:04:33;;;;;;;0.00;0.00;;;;;;;;;;5073589;28;20223;-71
2021/09/19 13:06:59;;;;;;;0.00;0.00;;;;;;;;;;5074369;28;20220;-72
2021/09/19 13:09:27;;;;;;;0.10;0.10;;;;;;;;;;5083498;28;20206;-74
2021/09/19 13:11:53;;;;;;;0.10;0.10;;;;;;;;;;5078166;28;20286;-71
2021/09/19 13:14:19;;;;;;;0.03;0.03;;;;;;;;;;5080387;28;20205;-72
2021/09/19 13:16:46;;;;;;;0.10;0.10;;;;;;;;;;5084297;28;20231;-73
2021/09/19 13:19:12;;;;;;;0.10;0.10;;;;;;;;;;5084063;28;20202;-73
2021/09/19 13:21:39;;;;;;;0.03;0.03;;;;;;;;;;5085606;28;20205;-72
2021/09/19 13:24:06;;;;;;;0.10;0.10;;;;;;;;;;5092553;28;20206;-71
2021/09/19 13:26:34;;;;;;;0.10;0.10;;;;;;;;;;5083333;28;20245;-70
2021/09/19 13:29:00;;;;;;;0.03;0.03;;;;;;;;;;5083249;28;20209;-72
2021/09/19 13:31:27;;;;;;;0.00;0.00;;;;;;;;;;5083080;28;20205;-70
2021/09/19 13:33:53;;;;;;;0.10;0.10;;;;;;;;;;5076199;28;20202;-73
2021/09/19 13:36:19;;;;;;;0.10;0.10;;;;;;;;;;5076273;28;20213;-75
2021/09/19 13:38:45;;;;;;;0.10;0.10;;;;;;;;;;5082784;28;20276;-74
2021/09/19 13:41:12;;;;;;;0.10;0.10;;;;;;;;;;5077596;28;20249;-72
2021/09/19 13:43:39;;;;;;;0.10;0.10;;;;;;;;;;5082356;28;20217;-71
2021/09/19 13:46:06;;;;;;;0.10;0.10;;;;;;;;;;5082714;28;20209;-72
2021/09/19 13:48:32;;;;;;;0.10;0.10;;;;;;;;;;5082824;28;20202;-72
2021/09/19 13:50:58;;;;;;;0.00;0.00;;;;;;;;;;5080927;28;20497;-73
2021/09/19 13:53:24;;;;;;;0.00;0.00;;;;;;;;;;5081600;28;20332;-72
2021/09/19 13:55:54;;;;;;;0.10;0.10;;;;;;;;;;5082621;28;20215;-72
2021/09/19 13:58:20;;;;;;;0.10;0.10;;;;;;;;;;5075410;28;20230;-72
2021/09/19 14:00:47;;;;;;;0.10;0.10;;;;;;;;;;5076479;28;20539;-72
2021/09/19 14:03:14;;;;;;;0.03;0.03;;;;;;;;;;5079883;28;20203;-71
2021/09/19 14:05:41;;;;;;;0.10;0.10;;;;;;;;;;5080130;28;20233;-72
2021/09/19 14:08:07;;;;;;;0.10;0.10;;;;;;;;;;5085262;28;20251;-71
2021/09/19 14:10:33;;;;;;;0.00;0.00;;;;;;;;;;5082481;28;20381;-72
2021/09/19 14:12:59;;;;;;;0.10;0.10;;;;;;;;;;5082391;28;20206;-72
2021/09/19 14:15:26;;;;;;;0.10;0.10;;;;;;;;;;5081227;28;20201;-71
2021/09/19 14:17:53;;;;;;;0.10;0.10;;;;;;;;;;5082174;28;20222;-71
2021/09/19 14:20:19;;;;;;;0.10;0.10;;;;;;;;;;5082308;28;20209;-72
2021/09/19 14:22:46;;;;;;;0.10;0.10;;;;;;;;;;5082547;28;20206;-71
2021/09/19 14:25:13;;;;;;;0.03;0.03;;;;;;;;;;5082567;28;20200;-72
2021/09/19 14:27:40;;;;;;;0.10;0.10;;;;;;;;;;5082111;28;20201;-70
2021/09/19 14:30:07;;;;;;;0.10;0.10;;;;;;;;;;5082533;28;20224;-72
2021/09/19 14:32:33;;;;;;;0.10;0.10;;;;;;;;;;5082232;28;20223;-72
2021/09/19 14:35:01;;;;;;;0.07;0.07;;;;;;;;;;5071567;28;20216;-71
2021/09/19 14:37:27;;;;;;;0.00;0.00;;;;;;;;;;5080742;28;20268;-72
2021/09/19 14:39:53;;;;;;;0.10;0.10;;;;;;;;;;5081891;28;20247;-72
2021/09/19 14:42:19;;;;;;;0.10;0.10;;;;;;;;;;5080608;28;20263;-72